Time;durP1;ratioP1;P1;durP2;ratioP2;P2;SDS_P1;SDS_P2;PMS_P1;PMS_P2;Temp;Humidity;BMP_temperature;BMP_pressure;BME280_temperature;BME280_humidity;BME280_pressure;Samples;Min_cycle;Max_cycle;Signal;HPM_P1;HPM_P2
2023/06/22 00:02:14;;;;;;;3.97;2.95;;;28.60;84.90;;;;;;6151501;23;20068;-82
2023/06/22 00:04:39;;;;;;;5.22;3.50;;;28.60;84.80;;;;;;6153717;23;20048;-82
2023/06/22 00:07:05;;;;;;;4.65;3.42;;;28.60;84.70;;;;;;6129335;23;20084;-82
2023/06/22 00:09:31;;;;;;;5.07;3.80;;;28.60;84.50;;;;;;6154845;23;20034;-83
2023/06/22 00:11:57;;;;;;;4.93;3.28;;;28.60;84.40;;;;;;6155831;23;20017;-82
2023/06/22 00:14:23;;;;;;;4.10;3.20;;;28.60;84.50;;;;;;6155947;23;20002;-82
2023/06/22 00:16:48;;;;;;;5.32;3.50;;;28.60;84.20;;;;;;6156021;23;20301;-82
2023/06/22 00:19:15;;;;;;;4.07;3.13;;;28.60;84.10;;;;;;6130181;23;20368;-82
2023/06/22 00:21:42;;;;;;;6.28;3.30;;;28.60;83.80;;;;;;6129790;23;20009;-82
2023/06/22 00:24:08;;;;;;;5.28;3.60;;;28.60;83.70;;;;;;6155379;23;20009;-82
2023/06/22 00:26:34;;;;;;;4.85;3.30;;;28.50;83.80;;;;;;6155959;23;20005;-81
2023/06/22 00:28:59;;;;;;;6.00;3.53;;;28.60;83.90;;;;;;6156085;23;20324;-82
2023/06/22 00:31:25;;;;;;;4.63;3.45;;;28.60;84.10;;;;;;6155512;23;20008;-82
2023/06/22 00:33:51;;;;;;;5.50;3.25;;;28.50;84.00;;;;;;6154909;23;20034;-82
2023/06/22 00:36:17;;;;;;;4.15;3.55;;;28.50;83.80;;;;;;6155356;23;20048;-81
2023/06/22 00:38:43;;;;;;;5.22;3.58;;;28.50;83.70;;;;;;6155908;23;20369;-80
2023/06/22 00:41:09;;;;;;;5.20;3.72;;;28.50;83.40;;;;;;6155601;23;20029;-81
2023/06/22 00:43:35;;;;;;;3.63;3.08;;;28.50;83.00;;;;;;6155407;23;20024;-81
2023/06/22 00:46:01;;;;;;;6.68;3.60;;;28.50;82.80;;;;;;6154570;23;20128;-82
2023/06/22 00:48:27;;;;;;;5.55;3.60;;;28.50;82.50;;;;;;6154890;23;20008;-81
2023/06/22 00:50:53;;;;;;;4.05;3.50;;;28.40;81.90;;;;;;6129441;23;20001;-81
2023/06/22 00:53:19;;;;;;;4.47;3.83;;;28.30;81.40;;;;;;6129291;23;20541;-82
2023/06/22 00:55:51;;;;;;;5.38;3.72;;;28.30;81.30;;;;;;6129276;23;20013;-81
2023/06/22 00:58:21;;;;;;;8.05;4.30;;;28.20;81.30;;;;;;6155172;23;20005;-81
2023/06/22 01:00:57;;;;;;;4.00;3.63;;;28.20;80.90;;;;;;6128597;23;20093;-82
2023/06/22 01:03:23;;;;;;;7.70;3.88;;;28.20;80.50;;;;;;6128880;23;20012;-81
2023/06/22 01:05:50;;;;;;;5.63;4.50;;;28.10;80.50;;;;;;6155337;23;20001;-81
2023/06/22 01:08:41;;;;;;;4.38;3.97;;;28.10;79.50;;;;;;6155362;23;20002;-82
2023/06/22 01:11:18;;;;;;;5.05;4.28;;;28.10;79.20;;;;;;6153999;23;20018;-82
2023/06/22 01:14:08;;;;;;;7.70;4.18;;;28.00;79.20;;;;;;6154845;23;20331;-82
2023/06/22 01:16:40;;;;;;;6.28;4.47;;;28.00;78.90;;;;;;6154526;23;20391;-81
2023/06/22 01:19:44;;;;;;;6.18;4.97;;;28.10;78.70;;;;;;6129206;23;20037;-81
2023/06/22 01:22:12;;;;;;;4.50;4.10;;;28.00;78.40;;;;;;6149671;23;20013;-81
2023/06/22 01:25:01;;;;;;;5.15;3.92;;;28.00;78.60;;;;;;6154696;23;20088;-81
2023/06/22 01:27:41;;;;;;;6.05;4.28;;;28.00;78.60;;;;;;6084419;23;20660;-82
2023/06/22 01:30:10;;;;;;;6.35;5.03;;;28.00;78.30;;;;;;6155516;23;20002;-83
2023/06/22 01:32:37;;;;;;;7.55;4.63;;;28.00;77.90;;;;;;6128332;23;20005;-80
2023/06/22 01:35:06;;;;;;;6.20;4.97;;;27.90;77.70;;;;;;6153706;23;20044;-81
2023/06/22 01:37:34;;;;;;;6.43;5.22;;;27.90;77.60;;;;;;6154961;23;20012;-79
2023/06/22 01:40:01;;;;;;;6.25;5.07;;;27.80;77.50;;;;;;6154995;23;20424;-80
2023/06/22 01:42:28;;;;;;;7.57;4.68;;;27.80;77.40;;;;;;6154259;23;20006;-80
2023/06/22 01:44:55;;;;;;;5.88;4.35;;;27.80;77.40;;;;;;6154161;23;20008;-80
2023/06/22 01:47:22;;;;;;;5.10;4.55;;;27.80;77.20;;;;;;6154985;23;20006;-81
2023/06/22 01:49:51;;;;;;;5.97;4.10;;;27.80;77.10;;;;;;6154669;23;20328;-81
2023/06/22 01:52:17;;;;;;;4.90;4.40;;;27.70;76.90;;;;;;6154604;23;20301;-81
2023/06/22 01:54:43;;;;;;;5.25;4.75;;;27.80;77.00;;;;;;6128449;23;20015;-81
2023/06/22 01:57:10;;;;;;;10.30;4.75;;;27.70;77.00;;;;;;6154589;23;20377;-81
2023/06/22 01:59:58;;;;;;;5.45;4.88;;;27.70;76.90;;;;;;6154520;23;20029;-79
2023/06/22 02:02:29;;;;;;;3.97;3.58;;;27.70;76.80;;;;;;6127135;23;20399;-80
2023/06/22 02:05:01;;;;;;;6.63;4.38;;;27.70;77.00;;;;;;6154333;23;20009;-81
2023/06/22 02:07:32;;;;;;;5.57;3.80;;;27.70;77.30;;;;;;6154230;23;20010;-80
2023/06/22 02:09:59;;;;;;;5.78;4.20;;;27.70;77.00;;;;;;6128336;23;20009;-80
2023/06/22 02:12:27;;;;;;;4.82;3.70;;;27.70;77.20;;;;;;6154555;23;20121;-80
2023/06/22 02:14:54;;;;;;;6.45;4.50;;;27.70;77.40;;;;;;6128710;23;20010;-80
2023/06/22 02:17:20;;;;;;;9.05;4.80;;;27.70;77.30;;;;;;6154583;23;20005;-79
2023/06/22 02:19:45;;;;;;;9.60;4.55;;;27.70;77.10;;;;;;6127784;23;20416;-80
2023/06/22 02:22:13;;;;;;;6.18;4.55;;;27.70;77.10;;;;;;6128192;23;20024;-79
2023/06/22 02:24:39;;;;;;;6.97;4.93;;;27.70;76.90;;;;;;6155386;23;20002;-80
2023/06/22 02:27:06;;;;;;;5.97;4.43;;;27.70;76.80;;;;;;6155970;23;20002;-80
2023/06/22 02:29:33;;;;;;;4.40;4.00;;;27.70;77.00;;;;;;6154962;23;20009;-80
2023/06/22 02:31:59;;;;;;;5.45;4.30;;;27.60;77.00;;;;;;6155799;23;20002;-81
2023/06/22 02:34:25;;;;;;;5.65;4.32;;;27.60;76.70;;;;;;6155711;23;20033;-81
2023/06/22 02:36:50;;;;;;;7.30;4.50;;;27.60;76.50;;;;;;6155882;23;20063;-80
2023/06/22 02:39:24;;;;;;;6.07;4.88;;;27.60;76.60;;;;;;6156415;23;20332;-80
2023/06/22 02:41:54;;;;;;;4.78;4.05;;;27.60;76.50;;;;;;6155824;23;20005;-80
2023/06/22 02:44:19;;;;;;;;;;;27.60;76.60;;;;;;6156440;23;20340;-80
2023/06/22 02:46:46;;;;;;;5.70;4.32;;;27.60;76.40;;;;;;6156678;23;19901;-80
2023/06/22 02:49:12;;;;;;;5.70;4.20;;;27.60;76.30;;;;;;6156440;23;20006;-79
2023/06/22 02:51:45;;;;;;;5.63;4.55;;;27.60;76.10;;;;;;6156384;23;20008;-80
2023/06/22 02:54:11;;;;;;;7.10;4.85;;;27.60;76.40;;;;;;6130400;23;20014;-80
2023/06/22 02:56:36;;;;;;;6.10;4.70;;;27.60;76.80;;;;;;6156477;23;20476;-80
2023/06/22 02:59:05;;;;;;;5.38;4.80;;;27.60;77.00;;;;;;6156856;23;20006;-80
2023/06/22 03:01:30;;;;;;;5.75;4.45;;;27.50;78.00;;;;;;6130610;23;20009;-80
2023/06/22 03:03:57;;;;;;;6.28;4.10;;;27.50;77.40;;;;;;6157764;23;20047;-80
2023/06/22 03:06:23;;;;;;;7.20;5.03;;;27.50;77.50;;;;;;6130378;23;20006;-85
2023/06/22 03:08:49;;;;;;;4.72;4.18;;;27.50;77.70;;;;;;6156972;23;20328;-86
2023/06/22 03:11:15;;;;;;;4.80;4.35;;;27.50;77.90;;;;;;6135391;23;20020;-86
2023/06/22 03:13:41;;;;;;;4.78;4.28;;;27.50;77.80;;;;;;6185676;23;20005;-86
2023/06/22 03:16:07;;;;;;;8.75;4.80;;;27.40;78.00;;;;;;6160712;23;20029;-86
2023/06/22 03:18:33;;;;;;;7.15;4.53;;;27.40;78.20;;;;;;6186989;23;20052;-86
2023/06/22 03:20:58;;;;;;;5.03;4.25;;;27.40;78.30;;;;;;6160260;23;20316;-85
2023/06/22 03:23:24;;;;;;;6.03;4.95;;;27.40;78.50;;;;;;6186947;23;20028;-86
2023/06/22 03:25:50;;;;;;;6.32;5.05;;;27.40;78.20;;;;;;6186301;23;20062;-86
2023/06/22 03:28:16;;;;;;;7.55;4.75;;;27.30;78.20;;;;;;6186994;23;20686;-86
2023/06/22 03:30:41;;;;;;;7.85;5.07;;;27.30;78.30;;;;;;6186723;23;20011;-87
2023/06/22 03:33:07;;;;;;;7.90;5.40;;;27.30;78.50;;;;;;6186707;23;19997;-86
2023/06/22 03:35:33;;;;;;;6.45;5.65;;;27.30;79.00;;;;;;6185642;23;20005;-86
2023/06/22 03:37:58;;;;;;;8.43;5.88;;;27.30;79.10;;;;;;6186025;23;20438;-86
2023/06/22 03:40:24;;;;;;;6.05;4.72;;;27.30;79.10;;;;;;6186496;23;20005;-86
2023/06/22 03:42:50;;;;;;;6.45;5.40;;;27.20;79.10;;;;;;6186518;23;20373;-87
2023/06/22 03:45:16;;;;;;;14.63;5.45;;;27.20;79.10;;;;;;6186356;23;20013;-86
2023/06/22 03:47:42;;;;;;;6.30;5.43;;;27.20;79.20;;;;;;6186182;23;20032;-87
2023/06/22 03:50:08;;;;;;;9.20;5.93;;;27.20;79.20;;;;;;6184370;23;20047;-85
2023/06/22 03:52:33;;;;;;;7.47;5.70;;;27.20;79.40;;;;;;6184398;23;20012;-84
2023/06/22 03:54:59;;;;;;;7.28;5.47;;;27.20;79.60;;;;;;6186707;23;20005;-84
2023/06/22 03:57:25;;;;;;;9.18;5.85;;;27.20;80.00;;;;;;6186450;23;20048;-84
2023/06/22 03:59:50;;;;;;;6.70;5.45;;;27.20;80.20;;;;;;6186601;23;20005;-85
2023/06/22 04:02:16;;;;;;;7.93;5.85;;;27.20;80.20;;;;;;6186189;23;20412;-85
2023/06/22 04:04:42;;;;;;;8.77;5.80;;;27.20;80.00;;;;;;6184955;23;20009;-85
2023/06/22 04:07:08;;;;;;;11.13;6.32;;;27.10;79.90;;;;;;6184124;23;20005;-84
2023/06/22 04:09:34;;;;;;;9.50;6.15;;;27.10;79.90;;;;;;6186288;23;20003;-85
2023/06/22 04:12:00;;;;;;;8.20;6.90;;;27.10;80.00;;;;;;6184353;23;20324;-86
2023/06/22 04:14:26;;;;;;;7.60;6.70;;;27.20;80.20;;;;;;6186561;23;20005;-86
2023/06/22 04:16:51;;;;;;;8.10;6.35;;;27.10;79.70;;;;;;6186448;23;20360;-86
2023/06/22 04:19:17;;;;;;;6.93;5.75;;;27.00;79.60;;;;;;6186191;23;20324;-85
2023/06/22 04:21:44;;;;;;;7.88;6.22;;;27.00;79.50;;;;;;6185199;23;20064;-85
2023/06/22 04:24:12;;;;;;;10.18;7.03;;;27.00;79.10;;;;;;6183951;23;20044;-85
2023/06/22 04:26:41;;;;;;;9.18;6.90;;;26.90;79.40;;;;;;6184965;23;20001;-88
2023/06/22 04:29:08;;;;;;;10.52;7.28;;;26.90;79.40;;;;;;6185787;23;20002;-88
2023/06/22 04:31:37;;;;;;;9.20;6.47;;;26.80;79.30;;;;;;6185901;23;20004;-86
2023/06/22 04:34:07;;;;;;;10.18;7.03;;;26.80;79.50;;;;;;6185765;23;19997;-87
2023/06/22 04:36:38;;;;;;;12.63;6.75;;;26.70;79.60;;;;;;6184678;23;20005;-87
2023/06/22 04:39:05;;;;;;;8.48;6.60;;;26.70;79.70;;;;;;6185587;23;20001;-88
2023/06/22 04:41:41;;;;;;;8.23;6.68;;;26.70;79.80;;;;;;6186080;23;20097;-87
2023/06/22 04:44:23;;;;;;;8.60;6.35;;;26.70;79.80;;;;;;6185017;23;20467;-89
2023/06/22 04:46:53;;;;;;;7.43;6.55;;;26.70;79.90;;;;;;6184972;23;20000;-91
2023/06/22 04:49:20;;;;;;;10.60;6.72;;;26.70;80.50;;;;;;6183710;23;20005;-90
2023/06/22 04:51:46;;;;;;;9.88;6.63;;;26.80;80.50;;;;;;6184409;23;20383;-91
2023/06/22 04:54:15;;;;;;;9.18;7.05;;;26.90;80.60;;;;;;6184270;23;20043;-88
2023/06/22 04:56:41;;;;;;;8.90;6.72;;;27.00;80.80;;;;;;6184786;23;20324;-93
2023/06/22 04:59:07;;;;;;;7.47;6.50;;;27.10;81.10;;;;;;6183948;23;20372;-87
2023/06/22 05:01:34;;;;;;;11.38;7.95;;;27.10;80.50;;;;;;6185518;23;20001;-88
2023/06/22 05:04:01;;;;;;;7.50;6.72;;;27.10;80.10;;;;;;6184156;23;20081;-86
2023/06/22 05:06:27;;;;;;;11.20;7.15;;;27.10;80.00;;;;;;6184825;23;20008;-84
2023/06/22 05:09:00;;;;;;;9.35;6.90;;;27.10;79.40;;;;;;6185337;23;20001;-88
2023/06/22 05:11:28;;;;;;;7.97;6.72;;;27.20;79.10;;;;;;6184319;23;20312;-90
2023/06/22 05:13:56;;;;;;;7.55;6.05;;;27.20;79.50;;;;;;6185594;23;20021;-87
2023/06/22 05:16:25;;;;;;;9.25;6.68;;;27.20;79.50;;;;;;6185985;23;20005;-86
2023/06/22 05:18:55;;;;;;;9.55;7.05;;;27.20;79.50;;;;;;6183720;23;20467;-85
2023/06/22 05:21:27;;;;;;;9.70;7.80;;;27.20;79.70;;;;;;6183399;23;20005;-84
2023/06/22 05:23:53;;;;;;;10.63;7.80;;;27.30;79.40;;;;;;6183566;23;20032;-86
2023/06/22 05:26:22;;;;;;;8.55;7.53;;;27.30;79.40;;;;;;6183344;23;20013;-86
2023/06/22 05:28:48;;;;;;;11.45;7.18;;;27.30;79.20;;;;;;6185317;23;20019;-84
2023/06/22 05:31:14;;;;;;;11.15;7.47;;;27.30;79.40;;;;;;6184600;23;20008;-82
2023/06/22 05:33:41;;;;;;;11.45;8.82;;;27.40;79.60;;;;;;6184504;23;20001;-82
2023/06/22 05:36:07;;;;;;;10.95;8.38;;;27.40;80.00;;;;;;6185234;23;20328;-82
2023/06/22 05:38:33;;;;;;;12.15;9.05;;;27.40;79.80;;;;;;6185627;23;20001;-82
2023/06/22 05:40:59;;;;;;;9.77;7.88;;;27.40;79.60;;;;;;6185227;23;20001;-83
2023/06/22 05:43:24;;;;;;;8.77;7.45;;;27.40;79.60;;;;;;6185313;23;20411;-82
2023/06/22 05:45:50;;;;;;;10.27;8.10;;;27.40;79.70;;;;;;6183129;23;20028;-82
2023/06/22 05:48:16;;;;;;;11.85;7.78;;;27.40;79.70;;;;;;6185311;23;19997;-82
2023/06/22 05:50:42;;;;;;;11.13;8.20;;;27.50;79.90;;;;;;6185210;23;20005;-82
2023/06/22 05:53:08;;;;;;;13.13;8.10;;;27.50;79.80;;;;;;6185687;23;20032;-82
2023/06/22 05:55:33;;;;;;;8.55;7.70;;;27.60;80.00;;;;;;6184985;23;20001;-83
2023/06/22 05:57:59;;;;;;;10.90;8.82;;;27.60;79.70;;;;;;6184813;23;20056;-82
2023/06/22 06:00:25;;;;;;;10.27;8.32;;;27.60;79.70;;;;;;6181800;23;20627;-82
2023/06/22 06:02:51;;;;;;;11.27;8.35;;;27.70;79.70;;;;;;6181506;23;20005;-82
2023/06/22 06:05:16;;;;;;;9.68;7.35;;;27.70;79.70;;;;;;6184019;23;20008;-82
2023/06/22 06:07:43;;;;;;;9.55;8.00;;;27.80;79.50;;;;;;6184761;23;20068;-83
2023/06/22 06:10:09;;;;;;;7.75;6.97;;;27.80;79.60;;;;;;6185394;23;20411;-82
2023/06/22 06:12:35;;;;;;;9.38;7.10;;;27.90;79.50;;;;;;6184303;23;20067;-83
2023/06/22 06:15:02;;;;;;;8.63;7.25;;;27.90;79.40;;;;;;6184755;23;20013;-83
2023/06/22 06:17:27;;;;;;;9.75;6.97;;;28.00;79.20;;;;;;6185365;23;20008;-82
2023/06/22 06:19:53;;;;;;;8.57;7.43;;;28.00;79.30;;;;;;6184991;23;20005;-82
2023/06/22 06:22:20;;;;;;;11.98;7.68;;;28.10;79.30;;;;;;6185296;23;20001;-82
2023/06/22 06:24:47;;;;;;;7.90;6.20;;;28.10;79.40;;;;;;6185114;23;20006;-82
2023/06/22 06:27:13;;;;;;;8.52;6.38;;;28.20;79.60;;;;;;6184815;23;20081;-82
2023/06/22 06:29:39;;;;;;;15.57;7.65;;;28.30;79.70;;;;;;6183477;23;20001;-82
2023/06/22 06:32:05;;;;;;;11.95;6.60;;;28.30;79.70;;;;;;6184607;23;20443;-82
2023/06/22 06:34:31;;;;;;;6.82;5.47;;;28.40;79.70;;;;;;6185076;23;20459;-84
2023/06/22 06:36:57;;;;;;;5.22;4.72;;;28.40;79.00;;;;;;6185121;23;19997;-84
2023/06/22 06:39:22;;;;;;;7.93;6.28;;;28.50;78.10;;;;;;6185223;23;20007;-86
2023/06/22 06:41:48;;;;;;;7.32;5.68;;;28.50;78.00;;;;;;6183537;23;20036;-86
2023/06/22 06:44:14;;;;;;;7.13;5.20;;;28.50;77.90;;;;;;6183050;23;20300;-86
2023/06/22 06:46:41;;;;;;;8.25;5.70;;;28.60;77.80;;;;;;6183483;23;20001;-86
2023/06/22 06:49:07;;;;;;;5.65;5.00;;;28.60;78.00;;;;;;6182427;23;20008;-85
2023/06/22 06:51:33;;;;;;;6.97;5.45;;;28.60;77.50;;;;;;6184557;23;20320;-85
2023/06/22 06:53:58;;;;;;;7.40;5.30;;;28.70;77.20;;;;;;6183056;23;20096;-85
2023/06/22 06:56:24;;;;;;;9.02;6.00;;;28.80;77.70;;;;;;6184725;23;20001;-83
2023/06/22 06:58:51;;;;;;;7.00;6.30;;;28.80;77.80;;;;;;6184524;23;20092;-83
2023/06/22 07:01:17;;;;;;;9.65;5.55;;;28.90;77.90;;;;;;6185347;23;20001;-84
2023/06/22 07:03:42;;;;;;;10.90;6.70;;;29.00;77.50;;;;;;6183028;23;20020;-84
2023/06/22 07:06:09;;;;;;;6.20;5.00;;;29.00;76.90;;;;;;6184923;23;20001;-84
2023/06/22 07:08:36;;;;;;;8.13;5.43;;;29.10;77.00;;;;;;6184357;23;20044;-85
2023/06/22 07:11:02;;;;;;;7.03;4.85;;;29.10;76.90;;;;;;6185875;23;20017;-85
2023/06/22 07:13:28;;;;;;;8.68;5.20;;;29.20;77.00;;;;;;6186479;23;20335;-84
2023/06/22 07:15:54;;;;;;;7.70;4.95;;;29.20;76.70;;;;;;6159830;23;20009;-83
2023/06/22 07:18:19;;;;;;;6.25;4.70;;;29.30;76.30;;;;;;6186351;23;20009;-84
2023/06/22 07:20:45;;;;;;;6.55;4.80;;;29.30;75.90;;;;;;6186583;23;20001;-84
2023/06/22 07:23:11;;;;;;;8.00;5.28;;;29.40;76.00;;;;;;6186678;23;20005;-84
2023/06/22 07:25:36;;;;;;;5.88;4.90;;;29.40;75.50;;;;;;6186814;23;20001;-84
2023/06/22 07:28:04;;;;;;;6.45;4.90;;;29.40;75.30;;;;;;6186478;23;20004;-84
2023/06/22 07:30:31;;;;;;;5.38;4.47;;;29.40;75.40;;;;;;6186169;23;20431;-85
2023/06/22 07:32:58;;;;;;;7.95;5.22;;;29.50;75.60;;;;;;6185660;23;20001;-86
2023/06/22 07:35:24;;;;;;;5.13;4.63;;;29.50;75.10;;;;;;6185854;23;20009;-85
2023/06/22 07:37:50;;;;;;;6.95;4.78;;;29.50;74.90;;;;;;6185880;23;20001;-83
2023/06/22 07:40:15;;;;;;;5.85;4.35;;;29.50;75.00;;;;;;6186065;23;20123;-82
2023/06/22 07:42:41;;;;;;;5.90;4.57;;;29.50;74.90;;;;;;6185588;23;20044;-82
2023/06/22 07:45:10;;;;;;;5.35;3.95;;;29.60;74.80;;;;;;6186135;23;20001;-87
2023/06/22 07:47:36;;;;;;;6.57;4.93;;;29.70;74.90;;;;;;6159410;23;20008;-88
2023/06/22 07:50:14;;;;;;;6.68;4.68;;;29.70;74.50;;;;;;6186118;23;20005;-88
2023/06/22 07:52:40;;;;;;;7.25;4.70;;;29.70;74.60;;;;;;6158955;23;21056;-88
2023/06/22 07:55:06;;;;;;;6.93;4.70;;;29.80;73.90;;;;;;6160193;23;20005;-88
2023/06/22 07:57:33;;;;;;;6.35;4.38;;;29.80;73.80;;;;;;6186433;23;20008;-88
2023/06/22 08:00:17;;;;;;;9.93;4.70;;;29.90;73.90;;;;;;6186403;23;20335;-89
2023/06/22 08:02:46;;;;;;;8.45;4.78;;;30.00;73.50;;;;;;6185762;23;20056;-88
2023/06/22 08:05:12;;;;;;;6.55;4.70;;;30.00;72.90;;;;;;6185547;23;20052;-88
2023/06/22 08:07:38;;;;;;;6.68;4.47;;;30.00;72.90;;;;;;6186067;23;20324;-88
2023/06/22 08:10:05;;;;;;;7.97;5.03;;;30.10;72.70;;;;;;6186734;23;19997;-89
2023/06/22 08:12:31;;;;;;;6.25;4.20;;;30.10;72.50;;;;;;6185670;23;20013;-88
2023/06/22 08:14:57;;;;;;;7.40;4.38;;;30.10;72.60;;;;;;6186394;23;20332;-88
2023/06/22 08:17:24;;;;;;;8.32;5.05;;;30.20;73.00;;;;;;6159965;23;20059;-88
2023/06/22 08:19:50;;;;;;;7.75;4.80;;;30.20;73.20;;;;;;6186270;23;20040;-88
2023/06/22 08:22:16;;;;;;;6.13;4.20;;;30.20;73.50;;;;;;6185613;23;20008;-88
2023/06/22 08:24:42;;;;;;;6.45;4.32;;;30.20;73.90;;;;;;6185808;23;20005;-89
2023/06/22 08:27:09;;;;;;;6.40;4.10;;;30.30;74.20;;;;;;6186344;23;20001;-89
2023/06/22 08:29:35;;;;;;;9.27;4.18;;;30.30;74.40;;;;;;6186476;23;20423;-89
2023/06/22 08:32:01;;;;;;;7.47;4.45;;;30.40;74.60;;;;;;6186286;23;20338;-89
2023/06/22 08:34:27;;;;;;;6.55;5.00;;;30.50;74.20;;;;;;6186055;23;20025;-88
2023/06/22 08:36:53;;;;;;;7.10;4.38;;;30.60;74.50;;;;;;6185907;23;19997;-89
2023/06/22 08:39:20;;;;;;;6.38;4.20;;;30.70;74.60;;;;;;6186206;23;20005;-89
2023/06/22 08:41:46;;;;;;;9.25;4.63;;;30.80;74.40;;;;;;6186325;23;20440;-89
2023/06/22 08:44:12;;;;;;;10.15;4.82;;;30.80;74.10;;;;;;6186181;23;20023;-89
2023/06/22 08:46:40;;;;;;;9.80;4.80;;;31.00;73.60;;;;;;6159731;23;20028;-89
2023/06/22 08:49:06;;;;;;;5.75;4.10;;;31.00;72.50;;;;;;6186462;23;19997;-89
2023/06/22 08:51:32;;;;;;;7.25;4.50;;;31.10;72.60;;;;;;6186742;23;20080;-89
2023/06/22 08:53:57;;;;;;;9.32;5.00;;;31.20;72.40;;;;;;6185802;23;20031;-89
2023/06/22 08:56:23;;;;;;;12.02;5.78;;;31.20;71.60;;;;;;6159040;23;20088;-88
2023/06/22 08:58:49;;;;;;;7.45;4.40;;;31.20;71.90;;;;;;6160063;23;20491;-89
2023/06/22 09:01:15;;;;;;;7.28;4.60;;;31.30;71.70;;;;;;6186125;23;20001;-89
2023/06/22 09:03:41;;;;;;;4.78;4.10;;;31.40;71.70;;;;;;6159703;23;20459;-89
2023/06/22 09:06:09;;;;;;;8.60;4.20;;;31.40;71.20;;;;;;6186210;23;20016;-89
2023/06/22 09:08:35;;;;;;;9.13;4.47;;;31.40;70.90;;;;;;6186629;23;20500;-89
2023/06/22 09:11:00;;;;;;;6.47;4.00;;;31.40;71.30;;;;;;6186131;23;20051;-90
2023/06/22 09:13:30;;;;;;;6.47;4.20;;;31.50;72.00;;;;;;6185580;23;20427;-89
2023/06/22 09:15:55;;;;;;;5.72;4.30;;;31.50;72.00;;;;;;6185187;23;20001;-89
2023/06/22 09:18:21;;;;;;;10.88;5.00;;;31.50;72.20;;;;;;6184854;23;20005;-89
2023/06/22 09:20:47;;;;;;;5.55;4.25;;;31.50;73.10;;;;;;6185670;23;20563;-89
2023/06/22 09:23:13;;;;;;;6.68;4.30;;;31.50;73.10;;;;;;6185173;23;20011;-89
2023/06/22 09:25:40;;;;;;;5.15;3.80;;;31.40;73.60;;;;;;6185278;23;20059;-90
2023/06/22 09:28:05;;;;;;;6.10;4.55;;;31.40;73.40;;;;;;6185375;23;20004;-89
2023/06/22 09:30:31;;;;;;;5.07;4.22;;;31.40;73.30;;;;;;6184521;23;20347;-90
2023/06/22 09:32:57;;;;;;;4.75;3.75;;;31.30;73.50;;;;;;6181754;23;20028;-89
2023/06/22 09:35:22;;;;;;;5.03;4.07;;;31.30;73.50;;;;;;6184900;23;20430;-90
2023/06/22 09:37:48;;;;;;;6.85;3.70;;;31.30;73.20;;;;;;6184512;23;20095;-89
2023/06/22 09:40:16;;;;;;;7.07;4.00;;;31.30;73.10;;;;;;6184681;23;20005;-90
2023/06/22 09:42:42;;;;;;;7.00;4.03;;;31.40;73.20;;;;;;6185061;23;20012;-90
2023/06/22 09:45:08;;;;;;;4.50;3.53;;;31.40;72.20;;;;;;6158143;23;20345;-90
2023/06/22 09:47:34;;;;;;;4.65;3.47;;;31.40;72.60;;;;;;6185090;23;20029;-89
2023/06/22 09:50:00;;;;;;;7.00;3.90;;;31.40;72.40;;;;;;6158605;23;20428;-89
2023/06/22 09:52:26;;;;;;;5.22;3.72;;;31.40;71.90;;;;;;6184634;23;20004;-90
2023/06/22 09:54:52;;;;;;;5.10;3.97;;;31.40;70.90;;;;;;6184884;23;20004;-90
2023/06/22 09:57:17;;;;;;;5.63;3.25;;;31.40;70.90;;;;;;6185149;23;20005;-90
2023/06/22 09:59:43;;;;;;;4.13;3.40;;;31.40;70.90;;;;;;6158519;23;20009;-90
2023/06/22 10:02:09;;;;;;;5.18;3.92;;;31.40;70.90;;;;;;6184476;23;20420;-89
2023/06/22 10:04:35;;;;;;;4.05;3.42;;;31.40;70.80;;;;;;6184401;23;20015;-90
2023/06/22 10:07:02;;;;;;;4.28;3.40;;;31.50;70.60;;;;;;6185201;23;20072;-90
2023/06/22 10:09:27;;;;;;;4.47;3.20;;;31.50;70.30;;;;;;6158217;23;20164;-90
2023/06/22 10:11:53;;;;;;;5.55;3.47;;;31.70;70.30;;;;;;6184079;23;20017;-90
2023/06/22 10:14:19;;;;;;;4.47;3.72;;;31.80;69.50;;;;;;6183465;23;20047;-87
2023/06/22 10:16:45;;;;;;;3.88;3.33;;;31.90;69.00;;;;;;6184553;23;20483;-85
2023/06/22 10:19:10;;;;;;;3.47;3.17;;;32.00;68.30;;;;;;6183959;23;20002;-86
2023/06/22 10:21:36;;;;;;;3.55;3.25;;;32.10;67.80;;;;;;6183433;23;20080;-86
2023/06/22 10:24:05;;;;;;;4.75;3.30;;;32.20;67.00;;;;;;6184067;23;20623;-86
2023/06/22 10:26:35;;;;;;;4.30;3.15;;;32.30;66.70;;;;;;6157953;23;20044;-86
2023/06/22 10:29:02;;;;;;;6.43;3.83;;;32.40;65.70;;;;;;6184777;23;20003;-86
2023/06/22 10:31:28;;;;;;;4.93;3.13;;;32.50;65.50;;;;;;6184645;23;19997;-86
2023/06/22 10:33:55;;;;;;;4.32;3.50;;;32.70;65.30;;;;;;6157974;23;20005;-85
2023/06/22 10:36:22;;;;;;;4.90;3.83;;;32.70;64.00;;;;;;6183792;23;20005;-83
2023/06/22 10:38:48;;;;;;;6.13;3.40;;;32.70;61.90;;;;;;6157911;23;20005;-86
2023/06/22 10:41:15;;;;;;;4.78;2.92;;;32.70;62.90;;;;;;6185218;23;20001;-86
2023/06/22 10:43:41;;;;;;;4.25;3.30;;;32.80;63.00;;;;;;6158301;23;20009;-86
2023/06/22 10:46:07;;;;;;;4.82;3.67;;;32.80;62.60;;;;;;6159824;23;20458;-86
2023/06/22 10:48:33;;;;;;;3.95;3.10;;;32.80;62.30;;;;;;6160355;23;20369;-86
2023/06/22 10:50:59;;;;;;;4.13;3.13;;;32.80;62.00;;;;;;6160001;23;20001;-86
2023/06/22 10:53:25;;;;;;;6.55;3.53;;;32.80;61.70;;;;;;6185988;23;20004;-86
2023/06/22 10:55:52;;;;;;;4.35;3.28;;;32.70;61.00;;;;;;6160347;23;20009;-87
2023/06/22 10:58:20;;;;;;;6.00;3.50;;;32.70;60.40;;;;;;6186424;23;20036;-86
2023/06/22 11:00:46;;;;;;;4.40;3.20;;;32.80;60.70;;;;;;6186481;23;20083;-83
2023/06/22 11:03:14;;;;;;;5.40;3.20;;;32.90;60.90;;;;;;6185790;23;20005;-82
2023/06/22 11:05:39;;;;;;;4.07;3.05;;;33.10;60.50;;;;;;6159246;23;20013;-82
2023/06/22 11:08:05;;;;;;;3.67;3.03;;;33.30;60.00;;;;;;6159499;23;20002;-82
2023/06/22 11:10:31;;;;;;;5.30;3.35;;;33.50;60.20;;;;;;6185674;23;20608;-83
2023/06/22 11:12:57;;;;;;;6.82;4.05;;;33.70;60.30;;;;;;6185616;23;20092;-82
2023/06/22 11:15:24;;;;;;;3.63;3.33;;;33.90;59.30;;;;;;6159104;23;20058;-82
2023/06/22 11:17:49;;;;;;;5.82;3.42;;;34.10;59.00;;;;;;6186046;23;20075;-83
2023/06/22 11:20:16;;;;;;;4.18;3.10;;;34.30;58.70;;;;;;6159345;23;20091;-84
2023/06/22 11:22:41;;;;;;;6.93;2.95;;;34.50;58.70;;;;;;6185705;23;20020;-82
2023/06/22 11:25:08;;;;;;;9.63;3.38;;;34.70;57.50;;;;;;6185876;23;20365;-83
2023/06/22 11:27:34;;;;;;;6.40;3.60;;;34.90;56.80;;;;;;6184705;23;20435;-83
2023/06/22 11:30:00;;;;;;;9.00;3.75;;;35.10;56.50;;;;;;6185613;23;20419;-85
2023/06/22 11:32:26;;;;;;;5.45;3.30;;;35.40;56.10;;;;;;6185991;23;19997;-85
2023/06/22 11:34:51;;;;;;;5.68;2.97;;;35.60;55.90;;;;;;6185657;23;20052;-84
2023/06/22 11:37:17;;;;;;;8.50;3.90;;;36.00;55.70;;;;;;6159662;23;20424;-87
2023/06/22 11:39:43;;;;;;;12.88;3.70;;;36.30;54.00;;;;;;6160125;23;20344;-87
2023/06/22 11:42:12;;;;;;;14.90;3.95;;;36.70;54.60;;;;;;6186471;23;20004;-87
2023/06/22 11:44:37;;;;;;;13.55;3.70;;;37.00;53.10;;;;;;6186605;23;20024;-86
2023/06/22 11:47:04;;;;;;;6.32;3.58;;;37.30;52.10;;;;;;6186512;23;20024;-86
2023/06/22 11:49:32;;;;;;;4.70;3.40;;;37.60;51.90;;;;;;6186286;23;20007;-88
2023/06/22 11:51:58;;;;;;;4.57;3.00;;;37.80;51.30;;;;;;6186674;23;20001;-86
2023/06/22 11:54:24;;;;;;;5.03;3.10;;;38.00;50.80;;;;;;6186336;23;20005;-88
2023/06/22 11:56:50;;;;;;;10.40;2.78;;;38.20;49.80;;;;;;6185274;23;20005;-87
2023/06/22 11:59:15;;;;;;;9.63;3.63;;;38.40;49.70;;;;;;6186066;23;20001;-87
2023/06/22 12:01:43;;;;;;;2.75;2.55;;;38.60;49.20;;;;;;6185633;23;20080;-86
2023/06/22 12:04:11;;;;;;;6.65;3.25;;;38.70;48.40;;;;;;6185792;23;20081;-86
2023/06/22 12:06:38;;;;;;;5.15;3.00;;;38.80;48.40;;;;;;6185982;23;20005;-86
2023/06/22 12:09:06;;;;;;;4.18;2.80;;;39.00;47.50;;;;;;6185827;23;20432;-86
2023/06/22 12:11:32;;;;;;;5.13;3.00;;;39.00;46.90;;;;;;6185206;23;20760;-92
2023/06/22 12:14:01;;;;;;;4.90;3.20;;;39.00;46.60;;;;;;6186194;23;20227;-87
2023/06/22 12:16:28;;;;;;;5.80;2.70;;;39.00;46.50;;;;;;6159929;23;20012;-82
2023/06/22 12:18:53;;;;;;;4.07;2.85;;;39.00;46.10;;;;;;6185346;23;20005;-84
2023/06/22 12:21:19;;;;;;;6.40;3.05;;;39.00;46.30;;;;;;6184934;23;20396;-84
2023/06/22 12:23:45;;;;;;;3.38;2.55;;;39.10;46.00;;;;;;6185295;23;20429;-85
2023/06/22 12:26:13;;;;;;;7.00;2.75;;;39.20;45.30;;;;;;6159424;23;20373;-84
2023/06/22 12:28:42;;;;;;;4.43;2.80;;;39.20;44.50;;;;;;6159314;23;20004;-85
2023/06/22 12:31:08;;;;;;;3.60;2.97;;;39.30;44.60;;;;;;6185892;23;20001;-86
2023/06/22 12:33:36;;;;;;;5.80;2.78;;;39.30;44.20;;;;;;6158911;23;20039;-85
2023/06/22 12:36:03;;;;;;;5.23;3.33;;;39.40;44.10;;;;;;6159277;23;20131;-83
2023/06/22 12:38:29;;;;;;;5.20;3.10;;;39.50;44.00;;;;;;6184572;23;20028;-84
2023/06/22 12:40:54;;;;;;;5.88;3.28;;;39.60;44.40;;;;;;6185348;23;20285;-87
2023/06/22 12:43:20;;;;;;;5.60;3.15;;;39.70;44.10;;;;;;6185903;23;20420;-86
2023/06/22 12:45:46;;;;;;;4.82;3.20;;;39.70;44.50;;;;;;6159492;23;20031;-87